PWSweather.com
Personal Weather Stations
Station Observations
NYERIN
South Erin, Erin, NY 14838-9545

South ErinErin, NY 14838-9545

Lat: 42.150605, Lon: -76.654038

Elevation: 1663

Station Type: Davis VP Pro II

http://southerin-ny.org/wx.php

Latest ConditionsUpdated 9:02:01 AM EDT Wednesday, Jul 30, 2014
Currently Today's Max Today's Min Today's Average
Temperature 58.9°F14.9°C 58.9°F14.9°C 50.1°F10.1°C 52.8°F11.6°C
Dew Point 56.6°F13.7°C 56.7°F13.7°C 50.1°F10.1°C 52.5°F11.4°C
Winds 1.4 mph S2.3 kmh S 2.8 mph SSE4.5 kmh SSE - 0.3 mph 0.5 kmh
Wind Gusts 6.0 mph9.7 kmh 6.0 mph9.7 kmh - -
Humidity 92% 100% 92% 99%
Pressure 30.01 in1016.3 mb 30.02 in1016.6 mb 29.97 in1014.9 mb -
Precipitation - 0.01 in0.3 mm - -
Hour Temp Dew Point Humidity Winds Wind Gusts Pressure Precip Precip Rate Daily Precip Total
09:02 AM 58.9°F14.9°C 56.6°F13.7°C 92% 1.4 mph S2.3 kmh S 6.0 mph9.7 kmh 30.01 in1016.3 mb 0.00 in0.0 mm 0.00 in/hr0.0 mm/hr 0.01 in0.3 mm
08:52 AM 58.1°F14.5°C 56.7°F13.7°C 95% 0.5 mph SW0.8 kmh SW 2.0 mph3.2 kmh 30.02 in1016.6 mb 0.00 in0.0 mm 0.00 in/hr0.0 mm/hr 0.01 in0.3 mm
08:42 AM 57.2°F14.0°C 56.7°F13.7°C 98% 1.2 mph SW1.9 kmh SW 5.0 mph8.0 kmh 30.02 in1016.6 mb 0.00 in0.0 mm 0.00 in/hr0.0 mm/hr 0.01 in0.3 mm
08:32 AM 56.3°F13.5°C 56.3°F13.5°C 100% 2.2 mph SE3.5 kmh SE 5.0 mph8.0 kmh 30.02 in1016.6 mb 0.00 in0.0 mm 0.00 in/hr0.0 mm/hr 0.01 in0.3 mm
08:22 AM 55.4°F13.0°C 55.4°F13.0°C 100% 2.2 mph SSE3.5 kmh SSE 4.0 mph6.4 kmh 30.02 in1016.6 mb 0.00 in0.0 mm 0.00 in/hr0.0 mm/hr 0.01 in0.3 mm
08:12 AM 54.5°F12.5°C 54.5°F12.5°C 100% 1.7 mph SSE2.7 kmh SSE 4.0 mph6.4 kmh 30.02 in1016.6 mb 0.00 in0.0 mm 0.00 in/hr0.0 mm/hr 0.01 in0.3 mm
08:02 AM 54.1°F12.3°C 54.1°F12.3°C 100% 1.5 mph SSE2.4 kmh SSE 3.0 mph4.8 kmh 30.01 in1016.3 mb 0.00 in0.0 mm 0.00 in/hr0.0 mm/hr 0.01 in0.3 mm
07:52 AM 53.9°F12.2°C 53.9°F12.2°C 100% 2.8 mph SSE4.5 kmh SSE 4.0 mph6.4 kmh 30.01 in1016.3 mb 0.00 in0.0 mm 0.00 in/hr0.0 mm/hr 0.01 in0.3 mm
07:42 AM 53.2°F11.8°C 53.2°F11.8°C 100% Calm Calm -- 30.00 in1015.9 mb 0.00 in0.0 mm 0.00 in/hr0.0 mm/hr 0.01 in0.3 mm
07:32 AM 52.8°F11.6°C 52.8°F11.6°C 100% Calm Calm -- 30.01 in1016.3 mb 0.00 in0.0 mm 0.00 in/hr0.0 mm/hr 0.01 in0.3 mm
07:22 AM 52.5°F11.4°C 52.5°F11.4°C 100% Calm Calm -- 30.00 in1015.9 mb 0.01 in0.3 mm 0.06 in/hr1.5 mm/hr 0.01 in0.3 mm
07:12 AM 52.2°F11.2°C 52.2°F11.2°C 100% Calm Calm -- 30.01 in1016.3 mb 0.00 in0.0 mm 0.00 in/hr0.0 mm/hr 0.00 in0.0 mm
07:02 AM 51.7°F10.9°C 51.7°F10.9°C 100% Calm Calm -- 30.00 in1015.9 mb 0.00 in0.0 mm 0.00 in/hr0.0 mm/hr 0.00 in0.0 mm
06:52 AM 50.7°F10.4°C 50.7°F10.4°C 100% Calm Calm -- 30.00 in1015.9 mb 0.00 in0.0 mm 0.00 in/hr0.0 mm/hr 0.00 in0.0 mm
06:42 AM 50.4°F10.2°C 50.4°F10.2°C 100% Calm Calm -- 30.00 in1015.9 mb 0.00 in0.0 mm 0.00 in/hr0.0 mm/hr 0.00 in0.0 mm
06:32 AM 50.4°F10.2°C 50.4°F10.2°C 100% Calm Calm -- 30.00 in1015.9 mb 0.00 in0.0 mm 0.00 in/hr0.0 mm/hr 0.00 in0.0 mm
06:22 AM 50.2°F10.1°C 50.2°F10.1°C 100% Calm Calm -- 30.00 in1015.9 mb 0.00 in0.0 mm 0.00 in/hr0.0 mm/hr 0.00 in0.0 mm
06:12 AM 50.2°F10.1°C 50.2°F10.1°C 100% Calm Calm -- 30.00 in1015.9 mb 0.00 in0.0 mm 0.00 in/hr0.0 mm/hr 0.00 in0.0 mm
06:02 AM 50.1°F10.1°C 50.1°F10.1°C 100% Calm Calm -- 30.00 in1015.9 mb 0.00 in0.0 mm 0.00 in/hr0.0 mm/hr 0.00 in0.0 mm
05:52 AM 50.2°F10.1°C 50.2°F10.1°C 100% Calm Calm -- 29.99 in1015.6 mb 0.00 in0.0 mm 0.00 in/hr0.0 mm/hr 0.00 in0.0 mm
05:42 AM 50.5°F10.3°C 50.5°F10.3°C 100% Calm Calm -- 29.99 in1015.6 mb 0.00 in0.0 mm 0.00 in/hr0.0 mm/hr 0.00 in0.0 mm
05:32 AM 50.8°F10.4°C 50.8°F10.4°C 100% Calm Calm -- 29.99 in1015.6 mb 0.00 in0.0 mm 0.00 in/hr0.0 mm/hr 0.00 in0.0 mm
05:22 AM 50.8°F10.4°C 50.8°F10.4°C 100% Calm Calm -- 29.98 in1015.2 mb 0.00 in0.0 mm 0.00 in/hr0.0 mm/hr 0.00 in0.0 mm
05:12 AM 50.8°F10.4°C 50.8°F10.4°C 100% Calm Calm -- 29.98 in1015.2 mb 0.00 in0.0 mm 0.00 in/hr0.0 mm/hr 0.00 in0.0 mm
05:02 AM 51.0°F10.6°C 51.0°F10.6°C 100% Calm Calm 1.0 mph1.6 kmh 29.98 in1015.2 mb 0.00 in0.0 mm 0.00 in/hr0.0 mm/hr 0.00 in0.0 mm
04:52 AM 51.0°F10.6°C 51.0°F10.6°C 100% 0.4 mph WSW0.6 kmh WSW 2.0 mph3.2 kmh 29.99 in1015.6 mb 0.00 in0.0 mm 0.00 in/hr0.0 mm/hr 0.00 in0.0 mm
04:42 AM 51.1°F10.6°C 51.1°F10.6°C 100% 0.7 mph WSW1.1 kmh WSW 1.0 mph1.6 kmh 29.98 in1015.2 mb 0.00 in0.0 mm 0.00 in/hr0.0 mm/hr 0.00 in0.0 mm
04:32 AM 51.3°F10.7°C 51.3°F10.7°C 100% 0.4 mph WSW0.6 kmh WSW -- 29.98 in1015.2 mb 0.00 in0.0 mm 0.00 in/hr0.0 mm/hr 0.00 in0.0 mm
04:22 AM 51.4°F10.8°C 51.4°F10.8°C 100% Calm Calm -- 29.98 in1015.2 mb 0.00 in0.0 mm 0.00 in/hr0.0 mm/hr 0.00 in0.0 mm
04:12 AM 51.6°F10.9°C 51.6°F10.9°C 100% Calm Calm -- 29.98 in1015.2 mb 0.00 in0.0 mm 0.00 in/hr0.0 mm/hr 0.00 in0.0 mm
04:02 AM 51.7°F10.9°C 51.7°F10.9°C 100% Calm Calm -- 29.98 in1015.2 mb 0.00 in0.0 mm 0.00 in/hr0.0 mm/hr 0.00 in0.0 mm
03:52 AM 51.7°F10.9°C 51.7°F10.9°C 100% 0.3 mph NW0.5 kmh NW -- 29.98 in1015.2 mb 0.00 in0.0 mm 0.00 in/hr0.0 mm/hr 0.00 in0.0 mm
03:42 AM 52.0°F11.1°C 52.0°F11.1°C 100% Calm Calm -- 29.98 in1015.2 mb 0.00 in0.0 mm 0.00 in/hr0.0 mm/hr 0.00 in0.0 mm
03:32 AM 52.2°F11.2°C 52.2°F11.2°C 100% Calm Calm -- 29.97 in1014.9 mb 0.00 in0.0 mm 0.00 in/hr0.0 mm/hr 0.00 in0.0 mm
03:22 AM 52.3°F11.3°C 52.3°F11.3°C 100% Calm Calm -- 29.97 in1014.9 mb 0.00 in0.0 mm 0.00 in/hr0.0 mm/hr 0.00 in0.0 mm
03:12 AM 52.5°F11.4°C 52.5°F11.4°C 100% Calm Calm -- 29.98 in1015.2 mb 0.00 in0.0 mm 0.00 in/hr0.0 mm/hr 0.00 in0.0 mm
03:02 AM 52.5°F11.4°C 52.5°F11.4°C 100% Calm Calm -- 29.98 in1015.2 mb 0.00 in0.0 mm 0.00 in/hr0.0 mm/hr 0.00 in0.0 mm
02:52 AM 52.6°F11.4°C 52.6°F11.4°C 100% Calm Calm -- 29.98 in1015.2 mb 0.00 in0.0 mm 0.00 in/hr0.0 mm/hr 0.00 in0.0 mm
02:42 AM 52.8°F11.6°C 52.8°F11.6°C 100% Calm Calm -- 29.98 in1015.2 mb 0.00 in0.0 mm 0.00 in/hr0.0 mm/hr 0.00 in0.0 mm
02:32 AM 52.8°F11.6°C 52.8°F11.6°C 100% Calm Calm 1.0 mph1.6 kmh 29.98 in1015.2 mb 0.00 in0.0 mm 0.00 in/hr0.0 mm/hr 0.00 in0.0 mm
02:22 AM 52.9°F11.6°C 52.9°F11.6°C 100% Calm Calm -- 29.98 in1015.2 mb 0.00 in0.0 mm 0.00 in/hr0.0 mm/hr 0.00 in0.0 mm
02:12 AM 52.9°F11.6°C 52.9°F11.6°C 100% Calm Calm -- 29.98 in1015.2 mb 0.00 in0.0 mm 0.00 in/hr0.0 mm/hr 0.00 in0.0 mm
02:02 AM 52.9°F11.6°C 52.9°F11.6°C 100% Calm Calm -- 29.98 in1015.2 mb 0.00 in0.0 mm 0.00 in/hr0.0 mm/hr 0.00 in0.0 mm
01:52 AM 53.1°F11.7°C 52.8°F11.6°C 99% Calm Calm -- 29.98 in1015.2 mb 0.00 in0.0 mm 0.00 in/hr0.0 mm/hr 0.00 in0.0 mm
01:42 AM 53.1°F11.7°C 52.8°F11.6°C 99% Calm Calm -- 29.98 in1015.2 mb 0.00 in0.0 mm 0.00 in/hr0.0 mm/hr 0.00 in0.0 mm
01:32 AM 53.2°F11.8°C 52.9°F11.6°C 99% Calm Calm -- 29.98 in1015.2 mb 0.00 in0.0 mm 0.00 in/hr0.0 mm/hr 0.00 in0.0 mm
01:22 AM 53.3°F11.8°C 52.8°F11.6°C 98% Calm Calm -- 29.98 in1015.2 mb 0.00 in0.0 mm 0.00 in/hr0.0 mm/hr 0.00 in0.0 mm
01:12 AM 53.3°F11.8°C 52.5°F11.4°C 97% Calm Calm -- 29.98 in1015.2 mb 0.00 in0.0 mm 0.00 in/hr0.0 mm/hr 0.00 in0.0 mm
01:02 AM 53.5°F11.9°C 52.7°F11.5°C 97% Calm Calm -- 29.98 in1015.2 mb 0.00 in0.0 mm 0.00 in/hr0.0 mm/hr 0.00 in0.0 mm
12:52 AM 53.6°F12.0°C 52.5°F11.4°C 96% Calm Calm -- 29.98 in1015.2 mb 0.00 in0.0 mm 0.00 in/hr0.0 mm/hr 0.00 in0.0 mm
12:42 AM 53.9°F12.2°C 52.5°F11.4°C 95% Calm Calm -- 29.99 in1015.6 mb 0.00 in0.0 mm 0.00 in/hr0.0 mm/hr 0.00 in0.0 mm
12:32 AM 54.2°F12.3°C 52.8°F11.6°C 95% Calm Calm -- 29.98 in1015.2 mb 0.00 in0.0 mm 0.00 in/hr0.0 mm/hr 0.00 in0.0 mm
12:22 AM 54.7°F12.6°C 53.0°F11.7°C 94% Calm Calm -- 29.98 in1015.2 mb 0.00 in0.0 mm 0.00 in/hr0.0 mm/hr 0.00 in0.0 mm
12:12 AM 55.1°F12.8°C 53.4°F11.9°C 94% Calm Calm -- 29.98 in1015.2 mb 0.00 in0.0 mm 0.00 in/hr0.0 mm/hr 0.00 in0.0 mm
12:02 AM 55.4°F13.0°C 53.7°F12.1°C 94% Calm Calm -- 29.98 in1015.2 mb 0.00 in0.0 mm 0.00 in/hr0.0 mm/hr 0.00 in0.0 mm